sensor_id;sensor_type;location;lat;lon;timestamp;temperature;humidity
8736;DHT22;4404;49.308;12.178;2024-02-23T08:08:25;5.30;99.90
8736;DHT22;4404;49.308;12.178;2024-02-23T08:10:28;5.50;99.90
8736;DHT22;4404;49.308;12.178;2024-02-23T08:12:30;5.40;99.90
8736;DHT22;4404;49.308;12.178;2024-02-23T08:14:32;5.30;99.90
8736;DHT22;4404;49.308;12.178;2024-02-23T08:16:34;5.70;99.90
8736;DHT22;4404;49.308;12.178;2024-02-23T08:18:37;5.30;99.90
8736;DHT22;4404;49.308;12.178;2024-02-23T08:20:39;5.30;99.90
8736;DHT22;4404;49.308;12.178;2024-02-23T08:22:41;5.20;99.90
8736;DHT22;4404;49.308;12.178;2024-02-23T08:24:45;5.30;99.90
8736;DHT22;4404;49.308;12.178;2024-02-23T08:26:46;5.30;99.90
8736;DHT22;4404;49.308;12.178;2024-02-23T08:28:48;5.40;99.90
8736;DHT22;4404;49.308;12.178;2024-02-23T08:30:50;5.40;99.90
8736;DHT22;4404;49.308;12.178;2024-02-23T08:32:53;5.50;99.90
8736;DHT22;4404;49.308;12.178;2024-02-23T08:34:56;5.40;99.90
8736;DHT22;4404;49.308;12.178;2024-02-23T08:37:00;5.50;99.90
8736;DHT22;4404;49.308;12.178;2024-02-23T08:39:03;5.40;99.90
8736;DHT22;4404;49.308;12.178;2024-02-23T08:41:06;5.50;99.90
8736;DHT22;4404;49.308;12.178;2024-02-23T08:43:09;5.60;99.90
8736;DHT22;4404;49.308;12.178;2024-02-23T08:45:10;5.50;99.90
8736;DHT22;4404;49.308;12.178;2024-02-23T08:47:13;5.50;99.90
8736;DHT22;4404;49.308;12.178;2024-02-23T08:49:16;5.60;99.90
8736;DHT22;4404;49.308;12.178;2024-02-23T08:51:18;5.70;99.90
8736;DHT22;4404;49.308;12.178;2024-02-23T08:53:20;5.80;99.90
8736;DHT22;4404;49.308;12.178;2024-02-23T08:55:22;5.70;99.90
8736;DHT22;4404;49.308;12.178;2024-02-23T08:57:26;5.80;99.90
8736;DHT22;4404;49.308;12.178;2024-02-23T08:59:28;5.90;99.90
8736;DHT22;4404;49.308;12.178;2024-02-23T09:01:30;6.10;99.90
8736;DHT22;4404;49.308;12.178;2024-02-23T09:03:33;6.00;99.90
8736;DHT22;4404;49.308;12.178;2024-02-23T09:05:35;5.90;99.90
8736;DHT22;4404;49.308;12.178;2024-02-23T09:07:36;5.90;99.90
8736;DHT22;4404;49.308;12.178;2024-02-23T09:09:38;5.80;99.90
8736;DHT22;4404;49.308;12.178;2024-02-23T09:11:39;6.00;99.90
8736;DHT22;4404;49.308;12.178;2024-02-23T09:13:42;5.90;99.90
8736;DHT22;4404;49.308;12.178;2024-02-23T09:15:44;5.90;99.90
8736;DHT22;4404;49.308;12.178;2024-02-23T09:17:46;6.00;99.90
8736;DHT22;4404;49.308;12.178;2024-02-23T09:19:49;6.10;99.90
8736;DHT22;4404;49.308;12.178;2024-02-23T09:21:50;6.00;99.90
8736;DHT22;4404;49.308;12.178;2024-02-23T09:23:52;6.00;99.90
8736;DHT22;4404;49.308;12.178;2024-02-23T09:25:54;6.00;99.90
8736;DHT22;4404;49.308;12.178;2024-02-23T09:27:57;5.90;99.90
8736;DHT22;4404;49.308;12.178;2024-02-23T09:30:00;6.10;99.90
8736;DHT22;4404;49.308;12.178;2024-02-23T09:32:03;6.10;99.90
8736;DHT22;4404;49.308;12.178;2024-02-23T09:34:05;6.20;99.90
8736;DHT22;4404;49.308;12.178;2024-02-23T09:36:08;6.10;99.90
8736;DHT22;4404;49.308;12.178;2024-02-23T09:38:10;6.00;99.90
8736;DHT22;4404;49.308;12.178;2024-02-23T09:40:14;5.70;99.90
8736;DHT22;4404;49.308;12.178;2024-02-23T09:42:17;5.70;99.90
8736;DHT22;4404;49.308;12.178;2024-02-23T09:44:20;5.90;99.90
8736;DHT22;4404;49.308;12.178;2024-02-23T09:46:25;5.80;99.90
8736;DHT22;4404;49.308;12.178;2024-02-23T09:48:28;5.90;99.90
8736;DHT22;4404;49.308;12.178;2024-02-23T09:50:30;5.90;99.90
8736;DHT22;4404;49.308;12.178;2024-02-23T09:52:33;6.00;99.90
8736;DHT22;4404;49.308;12.178;2024-02-23T09:54:36;6.00;99.90
8736;DHT22;4404;49.308;12.178;2024-02-23T09:56:39;6.10;99.90
8736;DHT22;4404;49.308;12.178;2024-02-23T09:58:42;6.20;99.90
8736;DHT22;4404;49.308;12.178;2024-02-23T10:00:44;6.10;99.90
8736;DHT22;4404;49.308;12.178;2024-02-23T10:02:48;6.00;99.90
8736;DHT22;4404;49.308;12.178;2024-02-23T10:04:51;6.00;99.90
8736;DHT22;4404;49.308;12.178;2024-02-23T10:06:56;6.00;99.90
8736;DHT22;4404;49.308;12.178;2024-02-23T10:08:57;6.00;99.90
8736;DHT22;4404;49.308;12.178;2024-02-23T10:11:00;6.10;99.90
8736;DHT22;4404;49.308;12.178;2024-02-23T10:13:03;6.20;99.90
8736;DHT22;4404;49.308;12.178;2024-02-23T10:15:06;6.20;99.90
8736;DHT22;4404;49.308;12.178;2024-02-23T10:17:08;6.10;99.90
8736;DHT22;4404;49.308;12.178;2024-02-23T10:19:11;5.90;99.90
8736;DHT22;4404;49.308;12.178;2024-02-23T10:21:13;5.80;99.90
8736;DHT22;4404;49.308;12.178;2024-02-23T10:23:16;5.90;99.90
8736;DHT22;4404;49.308;12.178;2024-02-23T10:25:21;5.90;99.90
8736;DHT22;4404;49.308;12.178;2024-02-23T10:27:23;5.90;99.90
8736;DHT22;4404;49.308;12.178;2024-02-23T10:29:26;5.90;99.90
8736;DHT22;4404;49.308;12.178;2024-02-23T10:31:28;6.00;99.90
8736;DHT22;4404;49.308;12.178;2024-02-23T10:33:32;6.20;99.90
8736;DHT22;4404;49.308;12.178;2024-02-23T10:35:38;6.10;99.90
8736;DHT22;4404;49.308;12.178;2024-02-23T10:37:42;6.40;99.90
8736;DHT22;4404;49.308;12.178;2024-02-23T10:39:46;7.20;99.90
8736;DHT22;4404;49.308;12.178;2024-02-23T10:41:56;6.20;99.90
8736;DHT22;4404;49.308;12.178;2024-02-23T10:44:00;6.30;99.90
8736;DHT22;4404;49.308;12.178;2024-02-23T10:46:02;6.40;99.90
8736;DHT22;4404;49.308;12.178;2024-02-23T10:48:09;6.30;99.90
8736;DHT22;4404;49.308;12.178;2024-02-23T10:50:12;6.40;99.90
8736;DHT22;4404;49.308;12.178;2024-02-23T10:52:18;6.40;99.90
8736;DHT22;4404;49.308;12.178;2024-02-23T10:54:20;6.20;99.90
8736;DHT22;4404;49.308;12.178;2024-02-23T10:56:22;6.20;99.90
8736;DHT22;4404;49.308;12.178;2024-02-23T10:58:26;6.10;99.90
8736;DHT22;4404;49.308;12.178;2024-02-23T11:00:28;6.20;99.90
8736;DHT22;4404;49.308;12.178;2024-02-23T11:02:33;6.20;99.90
8736;DHT22;4404;49.308;12.178;2024-02-23T11:04:38;6.20;99.90
8736;DHT22;4404;49.308;12.178;2024-02-23T11:06:40;6.00;99.90
8736;DHT22;4404;49.308;12.178;2024-02-23T11:08:44;6.80;99.90
8736;DHT22;4404;49.308;12.178;2024-02-23T11:10:49;6.30;99.90
8736;DHT22;4404;49.308;12.178;2024-02-23T11:12:57;6.20;99.90
8736;DHT22;4404;49.308;12.178;2024-02-23T11:15:00;6.30;99.90
8736;DHT22;4404;49.308;12.178;2024-02-23T11:17:04;6.40;99.90
8736;DHT22;4404;49.308;12.178;2024-02-23T11:19:06;6.20;99.90
8736;DHT22;4404;49.308;12.178;2024-02-23T11:21:10;6.70;99.90
8736;DHT22;4404;49.308;12.178;2024-02-23T11:23:13;6.40;99.90
8736;DHT22;4404;49.308;12.178;2024-02-23T11:25:18;6.30;99.90
8736;DHT22;4404;49.308;12.178;2024-02-23T11:27:24;6.50;99.90
8736;DHT22;4404;49.308;12.178;2024-02-23T11:29:27;6.40;99.90
8736;DHT22;4404;49.308;12.178;2024-02-23T11:31:30;6.40;99.90
8736;DHT22;4404;49.308;12.178;2024-02-23T11:33:34;6.50;99.90
8736;DHT22;4404;49.308;12.178;2024-02-23T11:35:46;6.50;99.90
8736;DHT22;4404;49.308;12.178;2024-02-23T11:37:52;6.60;99.90
8736;DHT22;4404;49.308;12.178;2024-02-23T11:39:59;6.70;99.90
8736;DHT22;4404;49.308;12.178;2024-02-23T11:42:06;6.40;99.90
8736;DHT22;4404;49.308;12.178;2024-02-23T11:44:09;6.40;99.90
8736;DHT22;4404;49.308;12.178;2024-02-23T11:46:10;6.40;99.90
8736;DHT22;4404;49.308;12.178;2024-02-23T11:48:13;6.70;99.90
8736;DHT22;4404;49.308;12.178;2024-02-23T11:50:15;6.30;99.90
8736;DHT22;4404;49.308;12.178;2024-02-23T11:52:21;6.30;99.90
8736;DHT22;4404;49.308;12.178;2024-02-23T11:54:23;6.30;99.90
8736;DHT22;4404;49.308;12.178;2024-02-23T11:56:25;6.20;99.90
8736;DHT22;4404;49.308;12.178;2024-02-23T11:58:29;6.20;99.90
8736;DHT22;4404;49.308;12.178;2024-02-23T12:00:31;6.30;99.90
8736;DHT22;4404;49.308;12.178;2024-02-23T12:02:34;6.30;99.90
8736;DHT22;4404;49.308;12.178;2024-02-23T12:04:35;6.30;99.90
8736;DHT22;4404;49.308;12.178;2024-02-23T12:06:37;7.10;99.90
8736;DHT22;4404;49.308;12.178;2024-02-23T12:08:40;6.40;99.90
8736;DHT22;4404;49.308;12.178;2024-02-23T12:10:42;6.60;99.90
8736;DHT22;4404;49.308;12.178;2024-02-23T12:12:44;6.70;99.90
8736;DHT22;4404;49.308;12.178;2024-02-23T12:14:48;6.90;99.90
8736;DHT22;4404;49.308;12.178;2024-02-23T12:16:52;6.80;99.90
8736;DHT22;4404;49.308;12.178;2024-02-23T12:18:54;6.60;99.90
8736;DHT22;4404;49.308;12.178;2024-02-23T12:21:00;6.70;99.90
8736;DHT22;4404;49.308;12.178;2024-02-23T12:23:03;6.60;99.90
8736;DHT22;4404;49.308;12.178;2024-02-23T12:25:06;6.60;99.90
8736;DHT22;4404;49.308;12.178;2024-02-23T12:27:08;6.60;99.90
8736;DHT22;4404;49.308;12.178;2024-02-23T12:29:11;6.70;99.90
8736;DHT22;4404;49.308;12.178;2024-02-23T12:31:14;6.70;99.90
8736;DHT22;4404;49.308;12.178;2024-02-23T12:33:15;6.50;99.90
8736;DHT22;4404;49.308;12.178;2024-02-23T12:35:17;6.60;99.90
8736;DHT22;4404;49.308;12.178;2024-02-23T12:37:20;6.60;99.90
8736;DHT22;4404;49.308;12.178;2024-02-23T12:39:23;6.60;99.90
8736;DHT22;4404;49.308;12.178;2024-02-23T12:41:27;6.60;99.90
8736;DHT22;4404;49.308;12.178;2024-02-23T12:43:29;6.80;99.90
8736;DHT22;4404;49.308;12.178;2024-02-23T12:45:31;6.60;99.90
8736;DHT22;4404;49.308;12.178;2024-02-23T12:47:34;6.50;99.90
8736;DHT22;4404;49.308;12.178;2024-02-23T12:49:36;6.60;99.90
8736;DHT22;4404;49.308;12.178;2024-02-23T12:51:39;6.70;99.90
8736;DHT22;4404;49.308;12.178;2024-02-23T12:53:42;6.80;99.90
8736;DHT22;4404;49.308;12.178;2024-02-23T12:55:44;6.60;99.90
8736;DHT22;4404;49.308;12.178;2024-02-23T12:57:46;6.50;99.90
8736;DHT22;4404;49.308;12.178;2024-02-23T12:59:48;6.60;99.90
8736;DHT22;4404;49.308;12.178;2024-02-23T13:01:50;6.50;99.90
8736;DHT22;4404;49.308;12.178;2024-02-23T13:03:53;6.50;99.90
8736;DHT22;4404;49.308;12.178;2024-02-23T13:05:56;6.50;99.90
8736;DHT22;4404;49.308;12.178;2024-02-23T13:07:57;6.50;99.90
8736;DHT22;4404;49.308;12.178;2024-02-23T13:09:59;6.50;99.90
8736;DHT22;4404;49.308;12.178;2024-02-23T13:12:01;6.40;99.90
8736;DHT22;4404;49.308;12.178;2024-02-23T13:14:04;6.40;99.90
8736;DHT22;4404;49.308;12.178;2024-02-23T13:16:06;6.40;99.90
8736;DHT22;4404;49.308;12.178;2024-02-23T13:18:09;6.60;99.90
8736;DHT22;4404;49.308;12.178;2024-02-23T13:20:12;6.40;99.90
8736;DHT22;4404;49.308;12.178;2024-02-23T13:22:15;6.40;99.90
8736;DHT22;4404;49.308;12.178;2024-02-23T13:24:17;6.30;99.90
8736;DHT22;4404;49.308;12.178;2024-02-23T13:26:19;6.30;99.90
8736;DHT22;4404;49.308;12.178;2024-02-23T13:28:21;6.30;99.90
8736;DHT22;4404;49.308;12.178;2024-02-23T13:30:23;6.30;99.90
8736;DHT22;4404;49.308;12.178;2024-02-23T13:32:25;6.40;99.90
8736;DHT22;4404;49.308;12.178;2024-02-23T13:34:27;6.40;99.90
8736;DHT22;4404;49.308;12.178;2024-02-23T13:36:31;6.40;99.90
8736;DHT22;4404;49.308;12.178;2024-02-23T13:38:33;6.30;99.90
8736;DHT22;4404;49.308;12.178;2024-02-23T13:40:38;6.30;99.90
8736;DHT22;4404;49.308;12.178;2024-02-23T13:42:40;6.40;99.90
8736;DHT22;4404;49.308;12.178;2024-02-23T13:44:43;6.40;99.90
8736;DHT22;4404;49.308;12.178;2024-02-23T13:46:45;6.50;99.90
8736;DHT22;4404;49.308;12.178;2024-02-23T13:49:02;6.60;99.90
8736;DHT22;4404;49.308;12.178;2024-02-23T13:51:05;6.70;99.90
8736;DHT22;4404;49.308;12.178;2024-02-23T13:53:08;6.50;99.90
8736;DHT22;4404;49.308;12.178;2024-02-23T13:55:11;6.60;99.90
8736;DHT22;4404;49.308;12.178;2024-02-23T13:57:13;6.60;99.90
8736;DHT22;4404;49.308;12.178;2024-02-23T13:59:15;6.50;99.90
8736;DHT22;4404;49.308;12.178;2024-02-23T14:01:18;6.50;99.90
8736;DHT22;4404;49.308;12.178;2024-02-23T14:03:20;6.40;99.90
8736;DHT22;4404;49.308;12.178;2024-02-23T14:05:23;6.40;99.90
8736;DHT22;4404;49.308;12.178;2024-02-23T14:07:26;6.60;99.90
8736;DHT22;4404;49.308;12.178;2024-02-23T14:09:29;6.50;99.90
8736;DHT22;4404;49.308;12.178;2024-02-23T14:11:31;6.50;99.90
8736;DHT22;4404;49.308;12.178;2024-02-23T14:13:34;6.40;99.90
8736;DHT22;4404;49.308;12.178;2024-02-23T14:15:36;7.40;99.90
8736;DHT22;4404;49.308;12.178;2024-02-23T14:17:38;6.30;99.90
8736;DHT22;4404;49.308;12.178;2024-02-23T14:19:40;6.30;99.90
8736;DHT22;4404;49.308;12.178;2024-02-23T14:21:41;6.40;99.90
8736;DHT22;4404;49.308;12.178;2024-02-23T14:23:44;6.50;99.90
8736;DHT22;4404;49.308;12.178;2024-02-23T14:25:46;6.50;99.90
8736;DHT22;4404;49.308;12.178;2024-02-23T14:27:48;6.40;99.90
8736;DHT22;4404;49.308;12.178;2024-02-23T14:29:50;6.30;99.90
8736;DHT22;4404;49.308;12.178;2024-02-23T14:31:53;6.50;99.90
8736;DHT22;4404;49.308;12.178;2024-02-23T14:33:55;6.50;99.90
8736;DHT22;4404;49.308;12.178;2024-02-23T14:35:57;6.30;99.90
8736;DHT22;4404;49.308;12.178;2024-02-23T14:37:59;6.50;99.90
8736;DHT22;4404;49.308;12.178;2024-02-23T14:40:01;6.60;99.90
8736;DHT22;4404;49.308;12.178;2024-02-23T14:42:08;6.60;99.90
8736;DHT22;4404;49.308;12.178;2024-02-23T14:44:10;6.50;99.90
8736;DHT22;4404;49.308;12.178;2024-02-23T14:46:12;6.50;99.90
8736;DHT22;4404;49.308;12.178;2024-02-23T14:48:14;6.70;99.90
8736;DHT22;4404;49.308;12.178;2024-02-23T14:50:16;6.70;99.90
8736;DHT22;4404;49.308;12.178;2024-02-23T14:52:19;6.70;99.90
8736;DHT22;4404;49.308;12.178;2024-02-23T14:54:21;6.50;99.90
8736;DHT22;4404;49.308;12.178;2024-02-23T14:56:23;6.40;99.90
8736;DHT22;4404;49.308;12.178;2024-02-23T14:58:26;6.50;99.90
8736;DHT22;4404;49.308;12.178;2024-02-23T15:00:27;6.50;99.90
8736;DHT22;4404;49.308;12.178;2024-02-23T15:02:30;6.50;99.90
8736;DHT22;4404;49.308;12.178;2024-02-23T15:04:32;6.40;99.90
8736;DHT22;4404;49.308;12.178;2024-02-23T15:06:34;6.50;99.90
8736;DHT22;4404;49.308;12.178;2024-02-23T15:08:38;6.40;99.90
8736;DHT22;4404;49.308;12.178;2024-02-23T15:10:39;6.40;99.90
8736;DHT22;4404;49.308;12.178;2024-02-23T15:12:41;6.40;99.90
8736;DHT22;4404;49.308;12.178;2024-02-23T15:14:45;6.30;99.90
8736;DHT22;4404;49.308;12.178;2024-02-23T15:16:47;6.30;99.90
8736;DHT22;4404;49.308;12.178;2024-02-23T15:18:49;6.30;99.90
8736;DHT22;4404;49.308;12.178;2024-02-23T15:20:50;6.20;99.90
8736;DHT22;4404;49.308;12.178;2024-02-23T15:22:52;6.20;99.90
8736;DHT22;4404;49.308;12.178;2024-02-23T15:24:54;6.10;99.90
8736;DHT22;4404;49.308;12.178;2024-02-23T15:26:57;6.10;99.90
8736;DHT22;4404;49.308;12.178;2024-02-23T15:28:59;6.20;99.90
8736;DHT22;4404;49.308;12.178;2024-02-23T15:31:03;6.00;99.90
8736;DHT22;4404;49.308;12.178;2024-02-23T15:33:05;5.90;99.90
8736;DHT22;4404;49.308;12.178;2024-02-23T15:35:07;5.90;99.90
8736;DHT22;4404;49.308;12.178;2024-02-23T15:37:08;5.90;99.90
8736;DHT22;4404;49.308;12.178;2024-02-23T15:39:10;5.90;99.90
8736;DHT22;4404;49.308;12.178;2024-02-23T15:41:13;5.90;99.90
8736;DHT22;4404;49.308;12.178;2024-02-23T15:43:15;5.90;99.90
8736;DHT22;4404;49.308;12.178;2024-02-23T15:45:16;5.90;99.90
8736;DHT22;4404;49.308;12.178;2024-02-23T15:47:21;5.80;99.90
8736;DHT22;4404;49.308;12.178;2024-02-23T15:50:05;5.80;99.90
8736;DHT22;4404;49.308;12.178;2024-02-23T15:52:18;5.90;99.90
8736;DHT22;4404;49.308;12.178;2024-02-23T15:54:20;6.50;99.90
8736;DHT22;4404;49.308;12.178;2024-02-23T15:56:22;6.00;99.90
8736;DHT22;4404;49.308;12.178;2024-02-23T15:58:25;5.90;99.90
8736;DHT22;4404;49.308;12.178;2024-02-23T16:00:27;5.80;99.90
8736;DHT22;4404;49.308;12.178;2024-02-23T16:02:30;5.90;99.90
8736;DHT22;4404;49.308;12.178;2024-02-23T16:04:32;6.00;99.90
8736;DHT22;4404;49.308;12.178;2024-02-23T16:06:34;6.00;99.90
8736;DHT22;4404;49.308;12.178;2024-02-23T16:08:41;6.00;99.90
8736;DHT22;4404;49.308;12.178;2024-02-23T16:10:44;5.90;99.90
8736;DHT22;4404;49.308;12.178;2024-02-23T16:12:49;6.00;99.90
8736;DHT22;4404;49.308;12.178;2024-02-23T16:14:52;6.30;99.90
8736;DHT22;4404;49.308;12.178;2024-02-23T16:16:54;5.90;99.90
8736;DHT22;4404;49.308;12.178;2024-02-23T16:18:57;5.90;99.90
8736;DHT22;4404;49.308;12.178;2024-02-23T16:20:59;6.00;99.90
8736;DHT22;4404;49.308;12.178;2024-02-23T16:23:02;6.00;99.90
8736;DHT22;4404;49.308;12.178;2024-02-23T16:25:03;6.00;99.90
8736;DHT22;4404;49.308;12.178;2024-02-23T16:27:06;6.00;99.90
8736;DHT22;4404;49.308;12.178;2024-02-23T16:36:11;6.00;99.90
8736;DHT22;4404;49.308;12.178;2024-02-23T16:38:14;5.90;99.90
8736;DHT22;4404;49.308;12.178;2024-02-23T16:40:21;5.90;99.90
8736;DHT22;4404;49.308;12.178;2024-02-23T16:42:30;5.80;99.90
8736;DHT22;4404;49.308;12.178;2024-02-23T16:44:33;5.90;99.90
8736;DHT22;4404;49.308;12.178;2024-02-23T16:46:40;6.00;99.90
8736;DHT22;4404;49.308;12.178;2024-02-23T16:49:15;6.00;99.90
8736;DHT22;4404;49.308;12.178;2024-02-23T16:51:34;6.00;99.90
8736;DHT22;4404;49.308;12.178;2024-02-23T16:53:36;6.10;99.90
8736;DHT22;4404;49.308;12.178;2024-02-23T16:55:41;6.10;99.90
8736;DHT22;4404;49.308;12.178;2024-02-23T16:57:45;6.10;99.90
8736;DHT22;4404;49.308;12.178;2024-02-23T16:59:48;6.10;99.90
8736;DHT22;4404;49.308;12.178;2024-02-23T17:01:51;6.20;99.90
8736;DHT22;4404;49.308;12.178;2024-02-23T17:03:52;6.20;99.90
8736;DHT22;4404;49.308;12.178;2024-02-23T17:05:55;6.00;99.90
8736;DHT22;4404;49.308;12.178;2024-02-23T17:07:59;6.00;99.90
8736;DHT22;4404;49.308;12.178;2024-02-23T17:10:02;6.00;99.90
8736;DHT22;4404;49.308;12.178;2024-02-23T17:12:06;5.80;99.90
8736;DHT22;4404;49.308;12.178;2024-02-23T17:14:09;5.70;99.90
8736;DHT22;4404;49.308;12.178;2024-02-23T17:16:13;5.70;99.90
8736;DHT22;4404;49.308;12.178;2024-02-23T17:18:16;5.50;99.90
8736;DHT22;4404;49.308;12.178;2024-02-23T17:20:19;5.50;99.90
8736;DHT22;4404;49.308;12.178;2024-02-23T17:22:22;5.50;99.90
8736;DHT22;4404;49.308;12.178;2024-02-23T17:24:27;5.50;99.90
8736;DHT22;4404;49.308;12.178;2024-02-23T17:26:30;5.60;99.90
8736;DHT22;4404;49.308;12.178;2024-02-23T17:28:33;5.70;99.90
8736;DHT22;4404;49.308;12.178;2024-02-23T17:30:38;5.60;99.90
8736;DHT22;4404;49.308;12.178;2024-02-23T17:32:40;5.60;99.90
8736;DHT22;4404;49.308;12.178;2024-02-23T17:34:43;5.60;99.90
8736;DHT22;4404;49.308;12.178;2024-02-23T17:36:45;5.60;99.90
8736;DHT22;4404;49.308;12.178;2024-02-23T17:38:50;5.70;99.90
8736;DHT22;4404;49.308;12.178;2024-02-23T17:40:54;5.70;99.90
8736;DHT22;4404;49.308;12.178;2024-02-23T17:42:57;5.80;99.90
8736;DHT22;4404;49.308;12.178;2024-02-23T17:45:00;5.80;99.90
8736;DHT22;4404;49.308;12.178;2024-02-23T17:47:04;5.80;99.90
8736;DHT22;4404;49.308;12.178;2024-02-23T17:49:07;5.80;99.90
8736;DHT22;4404;49.308;12.178;2024-02-23T17:51:09;5.90;99.90
8736;DHT22;4404;49.308;12.178;2024-02-23T17:53:12;5.90;99.90
8736;DHT22;4404;49.308;12.178;2024-02-23T17:55:15;5.90;99.90
8736;DHT22;4404;49.308;12.178;2024-02-23T17:57:21;5.80;99.90
8736;DHT22;4404;49.308;12.178;2024-02-23T17:59:24;5.80;99.90
8736;DHT22;4404;49.308;12.178;2024-02-23T18:01:26;5.80;99.90
8736;DHT22;4404;49.308;12.178;2024-02-23T18:03:29;5.70;99.90
8736;DHT22;4404;49.308;12.178;2024-02-23T18:05:32;5.60;99.90
8736;DHT22;4404;49.308;12.178;2024-02-23T18:07:35;5.60;99.90
8736;DHT22;4404;49.308;12.178;2024-02-23T18:09:39;5.60;99.90
8736;DHT22;4404;49.308;12.178;2024-02-23T18:11:42;5.60;99.90
8736;DHT22;4404;49.308;12.178;2024-02-23T18:13:46;5.70;99.90
8736;DHT22;4404;49.308;12.178;2024-02-23T18:15:49;5.80;99.90
8736;DHT22;4404;49.308;12.178;2024-02-23T18:17:52;5.70;99.90
8736;DHT22;4404;49.308;12.178;2024-02-23T18:19:55;4.80;99.90
8736;DHT22;4404;49.308;12.178;2024-02-23T18:21:58;5.70;99.90
8736;DHT22;4404;49.308;12.178;2024-02-23T18:24:01;5.70;99.90
8736;DHT22;4404;49.308;12.178;2024-02-23T18:26:04;5.70;99.90
8736;DHT22;4404;49.308;12.178;2024-02-23T18:28:06;5.70;99.90
8736;DHT22;4404;49.308;12.178;2024-02-23T18:30:13;5.70;99.90
8736;DHT22;4404;49.308;12.178;2024-02-23T18:32:15;5.60;99.90
8736;DHT22;4404;49.308;12.178;2024-02-23T18:34:19;5.40;99.90
8736;DHT22;4404;49.308;12.178;2024-02-23T18:36:22;5.30;99.90
8736;DHT22;4404;49.308;12.178;2024-02-23T18:38:25;5.30;99.90
8736;DHT22;4404;49.308;12.178;2024-02-23T18:40:28;5.30;99.90
8736;DHT22;4404;49.308;12.178;2024-02-23T18:42:33;5.40;99.90
8736;DHT22;4404;49.308;12.178;2024-02-23T18:44:36;5.40;99.90
8736;DHT22;4404;49.308;12.178;2024-02-23T18:46:40;5.40;99.90
8736;DHT22;4404;49.308;12.178;2024-02-23T18:48:44;5.30;99.90
8736;DHT22;4404;49.308;12.178;2024-02-23T18:50:46;5.40;99.90
8736;DHT22;4404;49.308;12.178;2024-02-23T18:52:49;5.30;99.90
8736;DHT22;4404;49.308;12.178;2024-02-23T18:54:52;5.40;99.90
8736;DHT22;4404;49.308;12.178;2024-02-23T18:56:55;5.40;99.90
8736;DHT22;4404;49.308;12.178;2024-02-23T18:58:59;5.40;99.90
8736;DHT22;4404;49.308;12.178;2024-02-23T19:01:02;5.40;99.90
8736;DHT22;4404;49.308;12.178;2024-02-23T19:03:09;5.30;99.90
8736;DHT22;4404;49.308;12.178;2024-02-23T19:05:12;5.10;99.90
8736;DHT22;4404;49.308;12.178;2024-02-23T19:07:15;5.10;99.90
8736;DHT22;4404;49.308;12.178;2024-02-23T19:09:20;5.10;99.90
8736;DHT22;4404;49.308;12.178;2024-02-23T19:11:23;5.10;99.90
8736;DHT22;4404;49.308;12.178;2024-02-23T19:13:27;5.00;99.90
8736;DHT22;4404;49.308;12.178;2024-02-23T19:15:31;4.90;99.90
8736;DHT22;4404;49.308;12.178;2024-02-23T19:17:39;5.00;99.90
8736;DHT22;4404;49.308;12.178;2024-02-23T19:19:46;3.80;99.90
8736;DHT22;4404;49.308;12.178;2024-02-23T19:21:48;4.10;99.90
8736;DHT22;4404;49.308;12.178;2024-02-23T19:23:50;4.90;99.90
8736;DHT22;4404;49.308;12.178;2024-02-23T19:25:53;4.80;99.90
8736;DHT22;4404;49.308;12.178;2024-02-23T19:27:56;4.80;99.90
8736;DHT22;4404;49.308;12.178;2024-02-23T19:30:00;4.80;99.90
8736;DHT22;4404;49.308;12.178;2024-02-23T19:32:04;4.90;99.90
8736;DHT22;4404;49.308;12.178;2024-02-23T19:34:07;4.90;99.90
8736;DHT22;4404;49.308;12.178;2024-02-23T19:36:12;4.80;99.90
8736;DHT22;4404;49.308;12.178;2024-02-23T19:38:16;4.80;99.90
8736;DHT22;4404;49.308;12.178;2024-02-23T19:40:20;5.60;99.90
8736;DHT22;4404;49.308;12.178;2024-02-23T19:42:25;4.90;99.90
8736;DHT22;4404;49.308;12.178;2024-02-23T19:44:28;4.90;99.90
8736;DHT22;4404;49.308;12.178;2024-02-23T19:46:32;4.90;99.90
8736;DHT22;4404;49.308;12.178;2024-02-23T19:48:35;4.80;99.90
